sensor_id;sensor_type;location;lat;lon;timestamp;P1;durP1;ratioP1;P2;durP2;ratioP2
54807;SDS011;40708;50.364;7.550;2024-01-25T00:02:15;20.47;;;5.57;;
54807;SDS011;40708;50.364;7.550;2024-01-25T00:04:40;23.10;;;6.20;;
54807;SDS011;40708;50.364;7.550;2024-01-25T00:07:07;22.83;;;5.73;;
54807;SDS011;40708;50.364;7.550;2024-01-25T00:09:33;21.93;;;5.50;;
54807;SDS011;40708;50.364;7.550;2024-01-25T00:11:58;25.83;;;6.33;;
54807;SDS011;40708;50.364;7.550;2024-01-25T00:14:23;20.90;;;5.73;;
54807;SDS011;40708;50.364;7.550;2024-01-25T00:16:49;18.70;;;5.20;;
54807;SDS011;40708;50.364;7.550;2024-01-25T00:19:14;23.23;;;5.40;;
54807;SDS011;40708;50.364;7.550;2024-01-25T00:21:43;19.73;;;5.20;;
54807;SDS011;40708;50.364;7.550;2024-01-25T00:24:11;24.03;;;6.33;;
54807;SDS011;40708;50.364;7.550;2024-01-25T00:26:37;24.27;;;6.07;;
54807;SDS011;40708;50.364;7.550;2024-01-25T00:29:02;19.30;;;5.20;;
54807;SDS011;40708;50.364;7.550;2024-01-25T00:31:27;22.27;;;5.37;;
54807;SDS011;40708;50.364;7.550;2024-01-25T00:33:53;22.43;;;6.03;;
54807;SDS011;40708;50.364;7.550;2024-01-25T00:36:19;23.90;;;5.33;;
54807;SDS011;40708;50.364;7.550;2024-01-25T00:38:45;24.80;;;5.70;;
54807;SDS011;40708;50.364;7.550;2024-01-25T00:41:11;19.23;;;5.67;;
54807;SDS011;40708;50.364;7.550;2024-01-25T00:43:44;20.77;;;5.50;;
54807;SDS011;40708;50.364;7.550;2024-01-25T00:46:09;21.90;;;5.90;;
54807;SDS011;40708;50.364;7.550;2024-01-25T00:48:35;26.03;;;5.40;;
54807;SDS011;40708;50.364;7.550;2024-01-25T00:51:01;20.67;;;5.30;;
54807;SDS011;40708;50.364;7.550;2024-01-25T00:53:27;20.90;;;5.20;;
54807;SDS011;40708;50.364;7.550;2024-01-25T00:55:53;18.47;;;5.27;;
54807;SDS011;40708;50.364;7.550;2024-01-25T00:58:18;19.43;;;5.47;;
54807;SDS011;40708;50.364;7.550;2024-01-25T01:00:44;22.67;;;5.80;;
54807;SDS011;40708;50.364;7.550;2024-01-25T01:03:09;23.80;;;6.43;;
54807;SDS011;40708;50.364;7.550;2024-01-25T01:05:37;20.87;;;6.20;;
54807;SDS011;40708;50.364;7.550;2024-01-25T01:08:02;26.43;;;5.77;;
54807;SDS011;40708;50.364;7.550;2024-01-25T01:10:28;24.00;;;5.90;;
54807;SDS011;40708;50.364;7.550;2024-01-25T01:12:53;19.00;;;5.77;;
54807;SDS011;40708;50.364;7.550;2024-01-25T01:15:19;19.97;;;5.97;;
54807;SDS011;40708;50.364;7.550;2024-01-25T01:17:44;20.53;;;5.53;;
54807;SDS011;40708;50.364;7.550;2024-01-25T01:20:10;21.97;;;5.87;;
54807;SDS011;40708;50.364;7.550;2024-01-25T01:22:35;19.93;;;5.27;;
54807;SDS011;40708;50.364;7.550;2024-01-25T01:25:01;18.27;;;5.07;;
54807;SDS011;40708;50.364;7.550;2024-01-25T01:27:26;19.17;;;5.17;;
54807;SDS011;40708;50.364;7.550;2024-01-25T01:29:51;22.03;;;5.57;;
54807;SDS011;40708;50.364;7.550;2024-01-25T01:32:16;21.83;;;6.47;;
54807;SDS011;40708;50.364;7.550;2024-01-25T01:34:42;23.37;;;6.23;;
54807;SDS011;40708;50.364;7.550;2024-01-25T01:37:07;17.67;;;5.97;;
54807;SDS011;40708;50.364;7.550;2024-01-25T01:39:32;19.43;;;5.30;;
54807;SDS011;40708;50.364;7.550;2024-01-25T01:41:58;20.30;;;6.17;;
54807;SDS011;40708;50.364;7.550;2024-01-25T01:44:23;25.40;;;5.03;;
54807;SDS011;40708;50.364;7.550;2024-01-25T01:46:48;27.03;;;6.43;;
54807;SDS011;40708;50.364;7.550;2024-01-25T01:49:14;21.37;;;5.43;;
54807;SDS011;40708;50.364;7.550;2024-01-25T01:51:40;18.83;;;5.80;;
54807;SDS011;40708;50.364;7.550;2024-01-25T01:54:07;26.20;;;5.80;;
54807;SDS011;40708;50.364;7.550;2024-01-25T01:56:33;27.03;;;6.47;;
54807;SDS011;40708;50.364;7.550;2024-01-25T01:58:59;19.03;;;4.37;;
54807;SDS011;40708;50.364;7.550;2024-01-25T02:01:26;22.47;;;5.70;;
54807;SDS011;40708;50.364;7.550;2024-01-25T02:03:52;19.57;;;5.23;;
54807;SDS011;40708;50.364;7.550;2024-01-25T02:06:18;24.50;;;5.80;;
54807;SDS011;40708;50.364;7.550;2024-01-25T02:08:44;18.97;;;5.70;;
54807;SDS011;40708;50.364;7.550;2024-01-25T02:11:13;21.03;;;6.03;;
54807;SDS011;40708;50.364;7.550;2024-01-25T02:13:38;18.87;;;6.13;;
54807;SDS011;40708;50.364;7.550;2024-01-25T02:16:04;21.00;;;6.13;;
54807;SDS011;40708;50.364;7.550;2024-01-25T02:18:33;27.87;;;5.83;;
54807;SDS011;40708;50.364;7.550;2024-01-25T02:20:59;29.50;;;6.37;;
54807;SDS011;40708;50.364;7.550;2024-01-25T02:23:24;18.57;;;5.07;;
54807;SDS011;40708;50.364;7.550;2024-01-25T02:25:49;18.80;;;5.00;;
54807;SDS011;40708;50.364;7.550;2024-01-25T02:28:15;25.80;;;5.47;;
54807;SDS011;40708;50.364;7.550;2024-01-25T02:30:40;22.93;;;6.37;;
54807;SDS011;40708;50.364;7.550;2024-01-25T02:33:05;17.07;;;4.63;;
54807;SDS011;40708;50.364;7.550;2024-01-25T02:35:31;16.63;;;5.27;;
54807;SDS011;40708;50.364;7.550;2024-01-25T02:37:56;21.43;;;6.83;;
54807;SDS011;40708;50.364;7.550;2024-01-25T02:40:21;26.50;;;6.47;;
54807;SDS011;40708;50.364;7.550;2024-01-25T02:42:47;22.57;;;5.90;;
54807;SDS011;40708;50.364;7.550;2024-01-25T02:45:12;23.67;;;6.53;;
54807;SDS011;40708;50.364;7.550;2024-01-25T02:47:37;24.57;;;6.43;;
54807;SDS011;40708;50.364;7.550;2024-01-25T02:50:02;22.90;;;6.33;;
54807;SDS011;40708;50.364;7.550;2024-01-25T02:52:28;23.53;;;7.00;;
54807;SDS011;40708;50.364;7.550;2024-01-25T02:54:53;30.47;;;7.73;;
54807;SDS011;40708;50.364;7.550;2024-01-25T02:57:18;24.60;;;7.03;;
54807;SDS011;40708;50.364;7.550;2024-01-25T02:59:44;17.03;;;6.47;;
54807;SDS011;40708;50.364;7.550;2024-01-25T03:02:09;23.83;;;6.60;;
54807;SDS011;40708;50.364;7.550;2024-01-25T03:04:34;22.50;;;5.93;;
54807;SDS011;40708;50.364;7.550;2024-01-25T03:06:59;23.80;;;7.00;;
54807;SDS011;40708;50.364;7.550;2024-01-25T03:09:25;23.10;;;7.67;;
54807;SDS011;40708;50.364;7.550;2024-01-25T03:11:50;23.37;;;5.90;;
54807;SDS011;40708;50.364;7.550;2024-01-25T03:14:15;24.90;;;6.27;;
54807;SDS011;40708;50.364;7.550;2024-01-25T03:16:40;20.23;;;6.83;;
54807;SDS011;40708;50.364;7.550;2024-01-25T03:19:06;24.47;;;6.50;;
54807;SDS011;40708;50.364;7.550;2024-01-25T03:21:31;21.77;;;6.23;;
54807;SDS011;40708;50.364;7.550;2024-01-25T03:23:56;25.70;;;6.43;;
54807;SDS011;40708;50.364;7.550;2024-01-25T03:26:21;27.57;;;7.80;;
54807;SDS011;40708;50.364;7.550;2024-01-25T03:28:47;26.27;;;6.07;;
54807;SDS011;40708;50.364;7.550;2024-01-25T03:31:12;24.07;;;6.47;;
54807;SDS011;40708;50.364;7.550;2024-01-25T03:33:37;19.63;;;6.27;;
54807;SDS011;40708;50.364;7.550;2024-01-25T03:36:03;23.77;;;7.10;;
54807;SDS011;40708;50.364;7.550;2024-01-25T03:38:29;29.03;;;7.40;;
54807;SDS011;40708;50.364;7.550;2024-01-25T03:40:54;23.23;;;6.27;;
54807;SDS011;40708;50.364;7.550;2024-01-25T03:43:21;25.40;;;6.63;;
54807;SDS011;40708;50.364;7.550;2024-01-25T03:45:48;23.53;;;6.57;;
54807;SDS011;40708;50.364;7.550;2024-01-25T03:48:14;25.60;;;7.50;;
54807;SDS011;40708;50.364;7.550;2024-01-25T03:50:39;32.30;;;7.00;;
54807;SDS011;40708;50.364;7.550;2024-01-25T03:53:04;28.13;;;6.43;;
54807;SDS011;40708;50.364;7.550;2024-01-25T03:55:31;25.30;;;6.30;;
54807;SDS011;40708;50.364;7.550;2024-01-25T03:57:56;23.07;;;6.27;;
54807;SDS011;40708;50.364;7.550;2024-01-25T04:00:22;28.63;;;7.07;;
54807;SDS011;40708;50.364;7.550;2024-01-25T04:02:47;27.00;;;6.13;;
54807;SDS011;40708;50.364;7.550;2024-01-25T04:05:13;29.13;;;7.60;;
54807;SDS011;40708;50.364;7.550;2024-01-25T04:07:39;26.10;;;6.40;;
54807;SDS011;40708;50.364;7.550;2024-01-25T04:10:04;23.93;;;7.63;;
54807;SDS011;40708;50.364;7.550;2024-01-25T04:12:30;24.60;;;7.27;;
54807;SDS011;40708;50.364;7.550;2024-01-25T04:14:56;27.97;;;7.13;;
54807;SDS011;40708;50.364;7.550;2024-01-25T04:17:21;28.67;;;6.43;;
54807;SDS011;40708;50.364;7.550;2024-01-25T04:19:46;24.27;;;6.87;;
54807;SDS011;40708;50.364;7.550;2024-01-25T04:22:12;24.70;;;7.17;;
54807;SDS011;40708;50.364;7.550;2024-01-25T04:24:37;34.23;;;8.23;;
54807;SDS011;40708;50.364;7.550;2024-01-25T04:27:02;23.77;;;6.67;;
54807;SDS011;40708;50.364;7.550;2024-01-25T04:29:28;24.80;;;6.40;;
54807;SDS011;40708;50.364;7.550;2024-01-25T04:31:53;33.47;;;7.67;;
54807;SDS011;40708;50.364;7.550;2024-01-25T04:34:18;29.70;;;7.30;;
54807;SDS011;40708;50.364;7.550;2024-01-25T04:36:43;23.27;;;6.20;;
54807;SDS011;40708;50.364;7.550;2024-01-25T04:39:09;24.27;;;8.13;;
54807;SDS011;40708;50.364;7.550;2024-01-25T04:41:35;23.00;;;6.67;;
54807;SDS011;40708;50.364;7.550;2024-01-25T04:44:01;22.03;;;6.67;;
54807;SDS011;40708;50.364;7.550;2024-01-25T04:46:26;24.57;;;7.63;;
54807;SDS011;40708;50.364;7.550;2024-01-25T04:48:51;22.97;;;6.90;;
54807;SDS011;40708;50.364;7.550;2024-01-25T04:51:17;22.23;;;7.47;;
54807;SDS011;40708;50.364;7.550;2024-01-25T04:53:44;26.83;;;7.23;;
54807;SDS011;40708;50.364;7.550;2024-01-25T04:56:10;24.27;;;6.80;;
54807;SDS011;40708;50.364;7.550;2024-01-25T04:58:35;31.07;;;7.63;;
54807;SDS011;40708;50.364;7.550;2024-01-25T05:01:00;27.13;;;7.27;;
54807;SDS011;40708;50.364;7.550;2024-01-25T05:03:26;25.10;;;6.83;;
54807;SDS011;40708;50.364;7.550;2024-01-25T05:05:51;21.47;;;5.83;;
54807;SDS011;40708;50.364;7.550;2024-01-25T05:08:16;27.67;;;7.43;;
54807;SDS011;40708;50.364;7.550;2024-01-25T05:10:41;26.33;;;8.17;;
54807;SDS011;40708;50.364;7.550;2024-01-25T05:13:07;28.47;;;7.67;;
54807;SDS011;40708;50.364;7.550;2024-01-25T05:15:32;25.67;;;7.17;;
54807;SDS011;40708;50.364;7.550;2024-01-25T05:17:58;33.30;;;8.83;;
54807;SDS011;40708;50.364;7.550;2024-01-25T05:20:23;29.03;;;7.97;;
54807;SDS011;40708;50.364;7.550;2024-01-25T05:22:53;26.10;;;7.67;;
54807;SDS011;40708;50.364;7.550;2024-01-25T05:25:18;27.57;;;8.23;;
54807;SDS011;40708;50.364;7.550;2024-01-25T05:27:43;27.43;;;7.67;;
54807;SDS011;40708;50.364;7.550;2024-01-25T05:30:09;31.43;;;8.30;;
54807;SDS011;40708;50.364;7.550;2024-01-25T05:32:35;33.57;;;7.97;;
54807;SDS011;40708;50.364;7.550;2024-01-25T05:35:00;24.57;;;8.00;;
54807;SDS011;40708;50.364;7.550;2024-01-25T05:37:25;26.00;;;6.90;;
54807;SDS011;40708;50.364;7.550;2024-01-25T05:39:51;23.20;;;6.67;;
54807;SDS011;40708;50.364;7.550;2024-01-25T05:42:16;29.10;;;7.13;;
54807;SDS011;40708;50.364;7.550;2024-01-25T05:44:42;25.40;;;7.47;;
54807;SDS011;40708;50.364;7.550;2024-01-25T05:47:07;30.60;;;7.73;;
54807;SDS011;40708;50.364;7.550;2024-01-25T05:49:32;26.73;;;7.30;;
54807;SDS011;40708;50.364;7.550;2024-01-25T05:51:58;29.80;;;6.77;;
54807;SDS011;40708;50.364;7.550;2024-01-25T05:54:24;26.10;;;7.53;;
54807;SDS011;40708;50.364;7.550;2024-01-25T05:56:49;23.50;;;7.07;;
54807;SDS011;40708;50.364;7.550;2024-01-25T05:59:14;30.30;;;7.57;;
54807;SDS011;40708;50.364;7.550;2024-01-25T06:01:39;32.57;;;7.70;;
54807;SDS011;40708;50.364;7.550;2024-01-25T06:04:05;29.33;;;7.20;;
54807;SDS011;40708;50.364;7.550;2024-01-25T06:06:30;27.10;;;7.93;;
54807;SDS011;40708;50.364;7.550;2024-01-25T06:08:55;36.37;;;8.30;;
54807;SDS011;40708;50.364;7.550;2024-01-25T06:11:20;24.83;;;7.23;;
54807;SDS011;40708;50.364;7.550;2024-01-25T06:13:46;22.60;;;7.27;;
54807;SDS011;40708;50.364;7.550;2024-01-25T06:16:11;29.47;;;8.53;;
54807;SDS011;40708;50.364;7.550;2024-01-25T06:18:36;25.53;;;6.93;;
54807;SDS011;40708;50.364;7.550;2024-01-25T06:21:01;24.40;;;7.00;;
54807;SDS011;40708;50.364;7.550;2024-01-25T06:23:27;21.63;;;6.47;;
54807;SDS011;40708;50.364;7.550;2024-01-25T06:25:52;25.77;;;6.97;;
54807;SDS011;40708;50.364;7.550;2024-01-25T06:28:17;22.17;;;7.63;;
54807;SDS011;40708;50.364;7.550;2024-01-25T06:30:44;19.90;;;6.27;;
54807;SDS011;40708;50.364;7.550;2024-01-25T06:33:09;27.27;;;6.83;;
54807;SDS011;40708;50.364;7.550;2024-01-25T06:35:34;23.30;;;6.87;;
54807;SDS011;40708;50.364;7.550;2024-01-25T06:38:00;23.57;;;7.27;;
54807;SDS011;40708;50.364;7.550;2024-01-25T06:40:25;26.63;;;6.83;;
54807;SDS011;40708;50.364;7.550;2024-01-25T06:42:50;27.17;;;7.00;;
54807;SDS011;40708;50.364;7.550;2024-01-25T06:45:16;33.03;;;7.20;;
54807;SDS011;40708;50.364;7.550;2024-01-25T06:47:41;25.53;;;7.00;;
54807;SDS011;40708;50.364;7.550;2024-01-25T06:50:06;22.90;;;7.47;;
54807;SDS011;40708;50.364;7.550;2024-01-25T06:52:32;22.33;;;6.47;;
54807;SDS011;40708;50.364;7.550;2024-01-25T06:54:58;23.07;;;8.23;;
54807;SDS011;40708;50.364;7.550;2024-01-25T06:57:23;20.27;;;7.70;;
54807;SDS011;40708;50.364;7.550;2024-01-25T06:59:48;23.13;;;7.43;;
54807;SDS011;40708;50.364;7.550;2024-01-25T07:02:14;29.20;;;7.77;;
54807;SDS011;40708;50.364;7.550;2024-01-25T07:04:39;28.97;;;7.63;;
54807;SDS011;40708;50.364;7.550;2024-01-25T07:07:05;33.70;;;7.53;;
54807;SDS011;40708;50.364;7.550;2024-01-25T07:09:31;35.77;;;7.27;;
54807;SDS011;40708;50.364;7.550;2024-01-25T07:11:56;26.80;;;6.77;;
54807;SDS011;40708;50.364;7.550;2024-01-25T07:14:21;24.00;;;6.37;;
54807;SDS011;40708;50.364;7.550;2024-01-25T07:16:46;23.70;;;6.83;;
54807;SDS011;40708;50.364;7.550;2024-01-25T07:19:12;24.63;;;7.53;;
54807;SDS011;40708;50.364;7.550;2024-01-25T07:21:38;23.97;;;5.80;;
54807;SDS011;40708;50.364;7.550;2024-01-25T07:24:05;17.23;;;5.97;;
54807;SDS011;40708;50.364;7.550;2024-01-25T07:26:31;23.97;;;6.53;;
54807;SDS011;40708;50.364;7.550;2024-01-25T07:28:56;25.90;;;6.27;;
54807;SDS011;40708;50.364;7.550;2024-01-25T07:31:27;23.40;;;7.03;;
54807;SDS011;40708;50.364;7.550;2024-01-25T07:33:53;32.67;;;7.70;;
54807;SDS011;40708;50.364;7.550;2024-01-25T07:36:19;24.20;;;6.73;;
54807;SDS011;40708;50.364;7.550;2024-01-25T07:38:44;24.40;;;7.03;;
54807;SDS011;40708;50.364;7.550;2024-01-25T07:41:12;26.10;;;6.43;;
54807;SDS011;40708;50.364;7.550;2024-01-25T07:43:38;27.63;;;7.00;;
54807;SDS011;40708;50.364;7.550;2024-01-25T07:46:03;24.67;;;6.80;;
54807;SDS011;40708;50.364;7.550;2024-01-25T07:48:28;26.37;;;6.00;;
54807;SDS011;40708;50.364;7.550;2024-01-25T07:50:54;20.83;;;6.33;;
54807;SDS011;40708;50.364;7.550;2024-01-25T07:53:19;39.10;;;6.67;;
54807;SDS011;40708;50.364;7.550;2024-01-25T07:55:44;21.73;;;6.63;;
54807;SDS011;40708;50.364;7.550;2024-01-25T07:58:10;23.13;;;6.73;;
54807;SDS011;40708;50.364;7.550;2024-01-25T08:00:35;20.90;;;6.57;;
54807;SDS011;40708;50.364;7.550;2024-01-25T08:03:01;29.53;;;6.50;;
54807;SDS011;40708;50.364;7.550;2024-01-25T08:05:26;25.07;;;7.37;;
54807;SDS011;40708;50.364;7.550;2024-01-25T08:07:51;26.53;;;6.83;;
54807;SDS011;40708;50.364;7.550;2024-01-25T08:10:16;29.10;;;6.93;;
54807;SDS011;40708;50.364;7.550;2024-01-25T08:12:42;20.87;;;5.90;;
54807;SDS011;40708;50.364;7.550;2024-01-25T08:15:09;23.60;;;6.27;;
54807;SDS011;40708;50.364;7.550;2024-01-25T08:17:35;22.13;;;6.60;;
54807;SDS011;40708;50.364;7.550;2024-01-25T08:20:02;25.43;;;6.50;;
54807;SDS011;40708;50.364;7.550;2024-01-25T08:22:27;17.10;;;5.43;;
54807;SDS011;40708;50.364;7.550;2024-01-25T08:24:53;22.03;;;5.43;;
54807;SDS011;40708;50.364;7.550;2024-01-25T08:27:18;20.90;;;6.07;;
54807;SDS011;40708;50.364;7.550;2024-01-25T08:29:44;20.93;;;6.03;;
54807;SDS011;40708;50.364;7.550;2024-01-25T08:32:10;24.00;;;5.53;;
54807;SDS011;40708;50.364;7.550;2024-01-25T08:34:35;26.83;;;7.07;;
54807;SDS011;40708;50.364;7.550;2024-01-25T08:37:00;18.83;;;5.83;;
54807;SDS011;40708;50.364;7.550;2024-01-25T08:39:26;19.43;;;5.67;;
54807;SDS011;40708;50.364;7.550;2024-01-25T08:41:51;19.70;;;6.37;;
54807;SDS011;40708;50.364;7.550;2024-01-25T08:44:16;18.37;;;6.20;;
54807;SDS011;40708;50.364;7.550;2024-01-25T08:46:41;30.47;;;7.13;;
54807;SDS011;40708;50.364;7.550;2024-01-25T08:49:08;25.63;;;5.83;;
54807;SDS011;40708;50.364;7.550;2024-01-25T08:51:35;25.07;;;6.53;;
54807;SDS011;40708;50.364;7.550;2024-01-25T08:54:00;23.10;;;7.23;;
54807;SDS011;40708;50.364;7.550;2024-01-25T08:56:25;25.80;;;6.20;;
54807;SDS011;40708;50.364;7.550;2024-01-25T08:58:51;21.60;;;6.27;;
54807;SDS011;40708;50.364;7.550;2024-01-25T09:01:17;19.80;;;6.30;;
54807;SDS011;40708;50.364;7.550;2024-01-25T09:03:42;16.60;;;5.50;;
54807;SDS011;40708;50.364;7.550;2024-01-25T09:06:07;22.83;;;6.67;;
54807;SDS011;40708;50.364;7.550;2024-01-25T09:08:33;21.97;;;6.37;;
54807;SDS011;40708;50.364;7.550;2024-01-25T09:10:58;13.57;;;4.93;;
54807;SDS011;40708;50.364;7.550;2024-01-25T09:13:24;19.33;;;5.57;;
54807;SDS011;40708;50.364;7.550;2024-01-25T09:15:49;21.10;;;6.33;;
54807;SDS011;40708;50.364;7.550;2024-01-25T09:18:14;20.57;;;5.97;;
54807;SDS011;40708;50.364;7.550;2024-01-25T09:20:40;21.80;;;6.63;;
54807;SDS011;40708;50.364;7.550;2024-01-25T09:23:06;20.90;;;6.40;;
54807;SDS011;40708;50.364;7.550;2024-01-25T09:25:31;26.07;;;6.90;;
54807;SDS011;40708;50.364;7.550;2024-01-25T09:27:57;23.90;;;6.57;;
54807;SDS011;40708;50.364;7.550;2024-01-25T09:30:22;21.23;;;6.00;;
54807;SDS011;40708;50.364;7.550;2024-01-25T09:32:48;22.60;;;6.63;;
54807;SDS011;40708;50.364;7.550;2024-01-25T09:35:13;21.50;;;6.63;;
54807;SDS011;40708;50.364;7.550;2024-01-25T09:37:39;23.13;;;6.23;;
54807;SDS011;40708;50.364;7.550;2024-01-25T09:40:05;25.97;;;6.90;;
54807;SDS011;40708;50.364;7.550;2024-01-25T09:42:31;24.13;;;6.23;;
54807;SDS011;40708;50.364;7.550;2024-01-25T09:44:56;19.13;;;5.83;;
54807;SDS011;40708;50.364;7.550;2024-01-25T09:47:22;20.83;;;7.07;;
54807;SDS011;40708;50.364;7.550;2024-01-25T09:49:48;21.57;;;6.10;;
54807;SDS011;40708;50.364;7.550;2024-01-25T09:52:14;22.63;;;6.83;;
54807;SDS011;40708;50.364;7.550;2024-01-25T09:54:40;25.20;;;6.27;;
54807;SDS011;40708;50.364;7.550;2024-01-25T09:57:07;20.30;;;5.93;;
54807;SDS011;40708;50.364;7.550;2024-01-25T09:59:42;20.60;;;6.10;;
54807;SDS011;40708;50.364;7.550;2024-01-25T10:02:07;21.93;;;5.57;;
54807;SDS011;40708;50.364;7.550;2024-01-25T10:04:34;23.73;;;6.37;;
54807;SDS011;40708;50.364;7.550;2024-01-25T10:06:59;23.27;;;7.93;;
54807;SDS011;40708;50.364;7.550;2024-01-25T10:09:25;20.97;;;6.20;;
54807;SDS011;40708;50.364;7.550;2024-01-25T10:11:50;21.80;;;6.57;;
54807;SDS011;40708;50.364;7.550;2024-01-25T10:14:15;21.70;;;6.60;;
54807;SDS011;40708;50.364;7.550;2024-01-25T10:16:40;26.50;;;6.93;;
54807;SDS011;40708;50.364;7.550;2024-01-25T10:19:06;19.90;;;5.60;;
54807;SDS011;40708;50.364;7.550;2024-01-25T10:21:35;19.93;;;6.03;;
54807;SDS011;40708;50.364;7.550;2024-01-25T10:24:01;18.33;;;6.37;;
54807;SDS011;40708;50.364;7.550;2024-01-25T10:26:27;24.40;;;6.20;;
54807;SDS011;40708;50.364;7.550;2024-01-25T10:28:53;21.60;;;6.03;;
54807;SDS011;40708;50.364;7.550;2024-01-25T10:31:22;23.23;;;6.43;;
54807;SDS011;40708;50.364;7.550;2024-01-25T10:33:48;22.87;;;5.63;;
54807;SDS011;40708;50.364;7.550;2024-01-25T10:36:13;20.67;;;6.07;;
54807;SDS011;40708;50.364;7.550;2024-01-25T10:38:39;26.63;;;6.67;;
54807;SDS011;40708;50.364;7.550;2024-01-25T10:41:07;21.67;;;6.50;;
54807;SDS011;40708;50.364;7.550;2024-01-25T10:43:32;23.00;;;6.07;;
54807;SDS011;40708;50.364;7.550;2024-01-25T10:45:58;15.40;;;5.33;;
54807;SDS011;40708;50.364;7.550;2024-01-25T10:48:24;21.43;;;5.70;;
54807;SDS011;40708;50.364;7.550;2024-01-25T10:50:51;19.67;;;6.13;;
54807;SDS011;40708;50.364;7.550;2024-01-25T10:53:16;20.73;;;5.93;;
54807;SDS011;40708;50.364;7.550;2024-01-25T10:55:42;22.87;;;6.30;;
54807;SDS011;40708;50.364;7.550;2024-01-25T10:58:08;19.07;;;5.53;;
54807;SDS011;40708;50.364;7.550;2024-01-25T11:00:34;20.07;;;6.20;;
54807;SDS011;40708;50.364;7.550;2024-01-25T11:03:00;18.73;;;6.47;;
54807;SDS011;40708;50.364;7.550;2024-01-25T11:05:26;18.63;;;6.03;;
54807;SDS011;40708;50.364;7.550;2024-01-25T11:07:51;24.33;;;6.40;;
54807;SDS011;40708;50.364;7.550;2024-01-25T11:10:18;21.87;;;6.70;;
54807;SDS011;40708;50.364;7.550;2024-01-25T11:12:51;19.93;;;5.77;;
54807;SDS011;40708;50.364;7.550;2024-01-25T11:15:33;18.47;;;5.33;;
54807;SDS011;40708;50.364;7.550;2024-01-25T11:18:00;21.83;;;5.63;;
54807;SDS011;40708;50.364;7.550;2024-01-25T11:20:27;13.50;;;5.07;;
54807;SDS011;40708;50.364;7.550;2024-01-25T11:25:29;21.93;;;5.50;;
54807;SDS011;40708;50.364;7.550;2024-01-25T11:28:00;20.27;;;6.17;;
54807;SDS011;40708;50.364;7.550;2024-01-25T11:30:27;18.93;;;6.30;;
54807;SDS011;40708;50.364;7.550;2024-01-25T11:32:54;19.83;;;5.80;;
54807;SDS011;40708;50.364;7.550;2024-01-25T11:35:19;17.40;;;6.03;;
54807;SDS011;40708;50.364;7.550;2024-01-25T11:37:45;17.90;;;5.70;;
54807;SDS011;40708;50.364;7.550;2024-01-25T11:40:12;19.40;;;5.90;;
54807;SDS011;40708;50.364;7.550;2024-01-25T11:42:42;19.67;;;5.97;;
54807;SDS011;40708;50.364;7.550;2024-01-25T11:45:09;22.03;;;5.93;;
54807;SDS011;40708;50.364;7.550;2024-01-25T11:47:36;14.53;;;5.20;;
54807;SDS011;40708;50.364;7.550;2024-01-25T11:50:02;21.77;;;6.10;;
54807;SDS011;40708;50.364;7.550;2024-01-25T11:52:28;20.00;;;5.67;;
54807;SDS011;40708;50.364;7.550;2024-01-25T11:54:53;14.90;;;5.47;;
54807;SDS011;40708;50.364;7.550;2024-01-25T11:57:19;23.77;;;6.80;;
54807;SDS011;40708;50.364;7.550;2024-01-25T11:59:45;22.27;;;6.47;;
54807;SDS011;40708;50.364;7.550;2024-01-25T12:02:14;21.47;;;5.93;;
54807;SDS011;40708;50.364;7.550;2024-01-25T12:04:39;21.17;;;6.90;;
54807;SDS011;40708;50.364;7.550;2024-01-25T12:07:05;20.17;;;7.27;;
54807;SDS011;40708;50.364;7.550;2024-01-25T12:09:30;22.40;;;6.50;;
54807;SDS011;40708;50.364;7.550;2024-01-25T12:11:55;15.90;;;5.13;;
54807;SDS011;40708;50.364;7.550;2024-01-25T12:14:21;20.60;;;5.70;;
54807;SDS011;40708;50.364;7.550;2024-01-25T12:16:49;17.87;;;5.97;;
54807;SDS011;40708;50.364;7.550;2024-01-25T12:19:14;16.23;;;5.87;;
54807;SDS011;40708;50.364;7.550;2024-01-25T12:21:43;20.17;;;6.37;;
54807;SDS011;40708;50.364;7.550;2024-01-25T12:24:09;18.60;;;5.93;;
54807;SDS011;40708;50.364;7.550;2024-01-25T12:26:35;19.30;;;6.70;;
54807;SDS011;40708;50.364;7.550;2024-01-25T12:29:00;22.20;;;6.37;;
54807;SDS011;40708;50.364;7.550;2024-01-25T12:31:26;18.97;;;6.20;;
54807;SDS011;40708;50.364;7.550;2024-01-25T12:33:51;13.57;;;5.80;;
54807;SDS011;40708;50.364;7.550;2024-01-25T12:36:16;21.50;;;6.03;;
54807;SDS011;40708;50.364;7.550;2024-01-25T12:38:41;20.77;;;6.37;;
54807;SDS011;40708;50.364;7.550;2024-01-25T12:41:07;19.27;;;5.97;;
54807;SDS011;40708;50.364;7.550;2024-01-25T12:43:32;20.77;;;5.90;;
54807;SDS011;40708;50.364;7.550;2024-01-25T12:45:57;18.67;;;5.97;;
54807;SDS011;40708;50.364;7.550;2024-01-25T12:48:23;24.23;;;7.03;;
54807;SDS011;40708;50.364;7.550;2024-01-25T12:50:48;15.93;;;5.67;;
54807;SDS011;40708;50.364;7.550;2024-01-25T12:53:14;21.03;;;5.87;;
54807;SDS011;40708;50.364;7.550;2024-01-25T12:55:39;22.23;;;5.87;;
54807;SDS011;40708;50.364;7.550;2024-01-25T12:58:05;18.80;;;5.33;;
54807;SDS011;40708;50.364;7.550;2024-01-25T13:00:30;16.60;;;5.33;;
54807;SDS011;40708;50.364;7.550;2024-01-25T13:02:55;15.30;;;5.00;;
54807;SDS011;40708;50.364;7.550;2024-01-25T13:05:21;17.53;;;5.43;;
54807;SDS011;40708;50.364;7.550;2024-01-25T13:07:47;17.67;;;5.87;;
54807;SDS011;40708;50.364;7.550;2024-01-25T13:10:13;18.83;;;5.60;;
54807;SDS011;40708;50.364;7.550;2024-01-25T13:12:38;25.30;;;6.10;;
54807;SDS011;40708;50.364;7.550;2024-01-25T13:15:04;15.80;;;5.20;;
54807;SDS011;40708;50.364;7.550;2024-01-25T13:17:30;19.70;;;5.50;;
54807;SDS011;40708;50.364;7.550;2024-01-25T13:19:57;16.77;;;5.47;;
54807;SDS011;40708;50.364;7.550;2024-01-25T13:22:22;17.57;;;5.27;;
54807;SDS011;40708;50.364;7.550;2024-01-25T13:24:49;20.03;;;5.83;;
54807;SDS011;40708;50.364;7.550;2024-01-25T13:27:15;21.23;;;6.00;;
54807;SDS011;40708;50.364;7.550;2024-01-25T13:29:40;16.93;;;5.00;;
54807;SDS011;40708;50.364;7.550;2024-01-25T13:32:07;17.23;;;6.13;;
54807;SDS011;40708;50.364;7.550;2024-01-25T13:34:33;16.77;;;5.27;;
54807;SDS011;40708;50.364;7.550;2024-01-25T13:36:58;18.67;;;5.67;;
54807;SDS011;40708;50.364;7.550;2024-01-25T13:39:23;12.50;;;4.93;;
54807;SDS011;40708;50.364;7.550;2024-01-25T13:41:48;14.03;;;5.03;;
54807;SDS011;40708;50.364;7.550;2024-01-25T13:44:15;15.83;;;5.33;;
54807;SDS011;40708;50.364;7.550;2024-01-25T13:46:40;16.93;;;5.00;;
54807;SDS011;40708;50.364;7.550;2024-01-25T13:49:05;18.30;;;5.70;;
54807;SDS011;40708;50.364;7.550;2024-01-25T13:51:31;13.03;;;4.80;;
54807;SDS011;40708;50.364;7.550;2024-01-25T13:53:56;15.07;;;5.53;;
54807;SDS011;40708;50.364;7.550;2024-01-25T13:56:21;15.13;;;4.73;;
54807;SDS011;40708;50.364;7.550;2024-01-25T13:58:46;15.13;;;5.07;;
54807;SDS011;40708;50.364;7.550;2024-01-25T14:01:13;16.67;;;4.90;;
54807;SDS011;40708;50.364;7.550;2024-01-25T14:03:38;14.60;;;5.03;;
54807;SDS011;40708;50.364;7.550;2024-01-25T14:06:03;19.70;;;5.07;;
54807;SDS011;40708;50.364;7.550;2024-01-25T14:08:30;19.37;;;5.27;;
54807;SDS011;40708;50.364;7.550;2024-01-25T14:10:56;16.63;;;6.10;;
54807;SDS011;40708;50.364;7.550;2024-01-25T14:13:21;18.37;;;5.07;;
54807;SDS011;40708;50.364;7.550;2024-01-25T14:15:47;19.37;;;5.23;;
54807;SDS011;40708;50.364;7.550;2024-01-25T14:18:12;17.27;;;5.20;;
54807;SDS011;40708;50.364;7.550;2024-01-25T14:20:37;22.10;;;5.00;;
54807;SDS011;40708;50.364;7.550;2024-01-25T14:23:03;14.63;;;4.50;;
54807;SDS011;40708;50.364;7.550;2024-01-25T14:25:28;15.03;;;5.57;;
54807;SDS011;40708;50.364;7.550;2024-01-25T14:27:54;14.97;;;4.77;;